Terminal Aerodrome Forecast
Issued by NWS Shreveport, LA

Home | Current Version | Previous Version | Text Only | Print | Product List | Glossary On
Versions: 1 2 3 4 5 6 7 8 9 10 11 12 13 14 15 16 17 18 19 20 21 22
000
FTUS44 KSHV 190500
TAFLFK
TAF
KLFK 190520Z 1906/2006 09004KT P6SM OVC050
     FM190800 VRB02KT 3SM BR OVC005
      TEMPO 1908/1912 1/2SM FG VV002
     FM191500 09004KT 5SM BR OVC009
     FM191700 11005KT P6SM OVC015
     FM192000 12008KT P6SM VCTS BKN035CB=

USA.gov is the U.S. government's official web portal to all federal, state and local government web resources and services.